Terminal Aerodrome Forecast
Issued by NWS

Home | Current Version | Previous Version | Text Only | Print | Product List | Glossary On
Versions: 1 2 3 4 5 6 7 8 9 10 11 12 13 14 15 16 17 18 19 20 21 22 23 24 25 26 27
000
FTUS43 KAPX 241120
TAFMBL
TAF
KMBL 241120Z 2412/2512 31005KT 5SM BR OVC006
      TEMPO 2412/2415 1SM BR OVC003
     FM241700 32005KT 5SM BR OVC008
     FM250200 00000KT 4SM BR OVC007
     FM250900 VRB03KT 3SM -SN OVC003=

USA.gov is the U.S. government's official web portal to all federal, state and local government web resources and services.